Hellier, Kentucky
Current Conditions -  °F | °C
As of 7:35 AM on Monday 24 Nov 2014 (Local Time) from KPBX Reporting Station
Clear Clear  
Wind Chill: 62°   Ceiling: Unl
Heat Index: 62°   Visibility: 10mi
Dew Point: 46°   Wind: 13mph
Humidity: 58%   Direction: 170°S
Pressure: 29.55"   Gusts: 25mph
Location:  37.29°N, 82.47°W
Report Text: KPBX 241235Z AUTO 17011G22KT 140V210 10SM CLR 16/08 A2955 RMK AO2 T01640080
Loading
Personal Weather Stations






























Interactive Weather Map New forecast layout! Learn more

10-Day Weather Forecast

Advertisements
Track Severe Weather on mobile